Station Historical Data
Daily Summary for February 15, 2012 Units:  English    Metric   Both
« Previous Day
Next Day »
Daily Weekly Monthly Yearly Custom
  High: Low: Average:
Temperature: 59.6 °F 39.7 °F 49.4 °F
Dew Point: 49.3 °F 38.7 °F 44.2 °F
Humidity: 96% 57% 83%
Wind Speed: 12.0mph 0.0mph 3.9mph
Wind Gust: 15.0mph - -
Wind- - ESE
Pressure: 30.20 in 30.03 in -
Precipitation: 0.15 in    
Historical Graphs
 
 
Tabular Data for February 15, 2012
Time Temperature Dew Point Pressure Wind Wind Speed Wind Gust Humidity Rainfall Rate (Hourly) Conditions
00:00 42.3 °F 41.0 °F 30.13 in ENE 2.0 mph 3.0 mph 95% 0.00 in
00:01 42.3 °F 41.0 °F 30.13 in ENE 2.0 mph 3.0 mph 95% 0.00 in
00:06 42.4 °F 41.1 °F 30.13 in ESE 1.0 mph 3.0 mph 95% 0.00 in
00:11 42.3 °F 41.0 °F 30.13 in East 1.0 mph 2.0 mph 95% 0.00 in
00:16 42.3 °F 41.0 °F 30.13 in ESE 1.0 mph 2.0 mph 95% 0.00 in
00:21 42.3 °F 41.0 °F 30.13 in SE 2.0 mph 2.0 mph 95% 0.00 in
00:26 42.3 °F 41.0 °F 30.13 in SE 2.0 mph 2.0 mph 95% 0.00 in
00:31 42.3 °F 41.0 °F 30.13 in ESE 1.0 mph 1.0 mph 95% 0.00 in
00:36 42.2 °F 40.9 °F 30.13 in East 1.0 mph 2.0 mph 95% 0.00 in
00:41 42.2 °F 40.9 °F 30.13 in ESE 1.0 mph 2.0 mph 95% 0.00 in
00:46 42.2 °F 40.9 °F 30.13 in SE 1.0 mph 1.0 mph 95% 0.00 in
00:51 42.2 °F 40.9 °F 30.13 in SE 1.0 mph 1.0 mph 95% 0.00 in
00:56 42.2 °F 40.9 °F 30.13 in SE 1.0 mph 2.0 mph 95% 0.00 in
01:01 42.2 °F 40.9 °F 30.13 in SE 1.0 mph 2.0 mph 95% 0.00 in
01:06 42.3 °F 41.0 °F 30.13 in SE 1.0 mph 2.0 mph 95% 0.00 in
01:11 42.3 °F 41.0 °F 30.13 in ESE 1.0 mph 1.0 mph 95% 0.00 in
01:16 42.3 °F 41.0 °F 30.13 in East 1.0 mph 2.0 mph 95% 0.00 in
01:21 42.4 °F 41.1 °F 30.13 in ENE 3.0 mph 3.0 mph 95% 0.00 in
01:26 42.4 °F 41.1 °F 30.13 in East 1.0 mph 2.0 mph 95% 0.00 in
01:31 42.5 °F 41.2 °F 30.13 in East 1.0 mph 2.0 mph 95% 0.00 in
01:36 42.5 °F 41.2 °F 30.13 in ESE 1.0 mph 1.0 mph 95% 0.00 in
01:41 42.5 °F 41.2 °F 30.13 in ESE 1.0 mph 2.0 mph 95% 0.00 in
01:46 42.6 °F 41.3 °F 30.13 in ESE 1.0 mph 2.0 mph 95% 0.00 in
01:51 42.7 °F 41.1 °F 30.13 in East 1.0 mph 2.0 mph 94% 0.00 in
01:56 42.8 °F 41.2 °F 30.13 in East 1.0 mph 2.0 mph 94% 0.00 in
02:01 42.8 °F 41.2 °F 30.13 in East 1.0 mph 1.0 mph 94% 0.00 in
02:06 42.7 °F 41.1 °F 30.13 in East 1.0 mph 1.0 mph 94% 0.00 in
02:11 42.7 °F 41.1 °F 30.13 in Calm     94% 0.00 in
02:16 42.6 °F 41.0 °F 30.13 in Calm     94% 0.00 in
02:21 42.5 °F 40.9 °F 30.13 in Calm     94% 0.00 in
02:26 42.4 °F 41.1 °F 30.13 in Calm     95% 0.00 in
02:31 42.5 °F 41.2 °F 30.13 in SE 3.0 mph 3.0 mph 95% 0.00 in
02:36 42.5 °F 41.2 °F 30.12 in ESE 3.0 mph 3.0 mph 95% 0.00 in
02:42 42.7 °F 41.4 °F 30.12 in SE 3.0 mph 5.0 mph 95% 0.00 in
02:47 42.7 °F 41.4 °F 30.12 in ESE 3.0 mph 3.0 mph 95% 0.00 in
02:49 42.7 °F 41.4 °F 30.12 in ESE 2.0 mph 3.0 mph 95% 0.00 in
02:54 42.6 °F 41.3 °F 30.12 in SE 1.0 mph 1.0 mph 95% 0.00 in
02:59 42.3 °F 41.0 °F 30.12 in East 2.0 mph 4.0 mph 95% 0.00 in
03:04 42.3 °F 41.0 °F 30.12 in SE 3.0 mph 4.0 mph 95% 0.00 in
03:09 42.2 °F 40.9 °F 30.11 in ESE 3.0 mph 4.0 mph 95% 0.00 in
03:14 42.2 °F 40.9 °F 30.11 in ESE 2.0 mph 5.0 mph 95% 0.00 in
03:19 42.0 °F 40.7 °F 30.11 in SE 2.0 mph 3.0 mph 95% 0.00 in
03:24 42.1 °F 40.8 °F 30.11 in ESE 2.0 mph 3.0 mph 95% 0.00 in
03:29 42.2 °F 40.9 °F 30.12 in Calm   2.0 mph 95% 0.00 in
03:34 42.3 °F 41.0 °F 30.12 in SE 1.0 mph 2.0 mph 95% 0.00 in
03:39 42.4 °F 41.1 °F 30.12 in Calm     95% 0.00 in
03:44 42.5 °F 41.2 °F 30.12 in East 2.0 mph 2.0 mph 95% 0.00 in
03:49 42.4 °F 41.1 °F 30.12 in ESE 1.0 mph 2.0 mph 95% 0.00 in
03:54 42.4 °F 41.1 °F 30.12 in SE 2.0 mph 3.0 mph 95% 0.00 in
03:59 42.5 °F 40.9 °F 30.12 in East 1.0 mph 2.0 mph 94% 0.00 in
04:04 42.4 °F 40.8 °F 30.12 in ESE 1.0 mph 2.0 mph 94% 0.00 in
04:09 42.4 °F 40.8 °F 30.12 in SE 1.0 mph 3.0 mph 94% 0.00 in
04:14 42.3 °F 40.7 °F 30.12 in ESE 2.0 mph 4.0 mph 94% 0.00 in
04:19 42.1 °F 40.5 °F 30.12 in Calm   2.0 mph 94% 0.00 in
04:24 41.9 °F 40.3 °F 30.14 in Calm     94% 0.00 in
04:29 41.6 °F 40.0 °F 30.13 in East 1.0 mph 1.0 mph 94% 0.00 in
04:34 41.8 °F 40.2 °F 30.13 in ESE 1.0 mph 1.0 mph 94% 0.00 in
04:39 41.9 °F 40.3 °F 30.13 in SE 2.0 mph 2.0 mph 94% 0.00 in
04:44 42.0 °F 40.4 °F 30.13 in ESE 2.0 mph 3.0 mph 94% 0.00 in
04:49 42.0 °F 40.4 °F 30.13 in ESE 2.0 mph 4.0 mph 94% 0.00 in
04:54 41.8 °F 40.2 °F 30.13 in ESE 1.0 mph 2.0 mph 94% 0.00 in
04:59 41.7 °F 40.1 °F 30.13 in ESE 2.0 mph 3.0 mph 94% 0.00 in
05:04 41.7 °F 40.1 °F 30.13 in ESE 2.0 mph 4.0 mph 94% 0.00 in
05:09 41.7 °F 40.1 °F 30.13 in ESE 3.0 mph 3.0 mph 94% 0.00 in
05:14 41.7 °F 40.1 °F 30.12 in East 2.0 mph 4.0 mph 94% 0.00 in
05:19 41.4 °F 39.8 °F 30.12 in East 2.0 mph 3.0 mph 94% 0.00 in
05:24 41.2 °F 39.6 °F 30.12 in East 2.0 mph 4.0 mph 94% 0.00 in
05:29 41.0 °F 39.4 °F 30.12 in ESE 3.0 mph 4.0 mph 94% 0.00 in
05:34 40.8 °F 39.2 °F 30.12 in SE 2.0 mph 4.0 mph 94% 0.00 in
05:40 40.9 °F 39.6 °F 30.13 in SE 2.0 mph 3.0 mph 95% 0.00 in
05:45 40.9 °F 39.6 °F 30.14 in Calm   1.0 mph 95% 0.00 in
05:50 40.7 °F 39.4 °F 30.14 in ESE 1.0 mph 1.0 mph 95% 0.00 in
05:55 40.7 °F 39.4 °F 30.14 in Calm   1.0 mph 95% 0.00 in
06:00 40.6 °F 39.3 °F 30.15 in Calm     95% 0.00 in
06:05 40.3 °F 39.0 °F 30.15 in Calm     95% 0.00 in
06:10 40.4 °F 39.1 °F 30.15 in ESE 1.0 mph 1.0 mph 95% 0.00 in
06:15 40.7 °F 39.7 °F 30.15 in ESE 1.0 mph 1.0 mph 96% 0.00 in
06:20 40.8 °F 39.8 °F 30.15 in East 1.0 mph 1.0 mph 96% 0.00 in
06:25 40.7 °F 39.7 °F 30.16 in Calm     96% 0.00 in
06:30 40.2 °F 38.9 °F 30.16 in Calm     95% 0.00 in
06:35 40.4 °F 39.3 °F 30.16 in East 1.0 mph 1.0 mph 96% 0.00 in
06:40 40.9 °F 39.8 °F 30.15 in ENE 1.0 mph 3.0 mph 96% 0.00 in
06:45 40.8 °F 39.8 °F 30.17 in West 1.0 mph 1.0 mph 96% 0.00 in
06:50 40.1 °F 38.8 °F 30.18 in Calm   1.0 mph 95% 0.00 in
06:55 40.3 °F 39.2 °F 30.17 in West 1.0 mph 1.0 mph 96% 0.00 in
07:00 40.1 °F 39.0 °F 30.17 in ESE 2.0 mph 2.0 mph 96% 0.00 in
07:05 40.6 °F 39.5 °F 30.17 in ESE 2.0 mph 2.0 mph 96% 0.00 in
07:10 40.8 °F 39.8 °F 30.16 in ENE 4.0 mph 4.0 mph 96% 0.00 in
07:15 40.7 °F 39.7 °F 30.17 in Calm   4.0 mph 96% 0.00 in
07:20 40.2 °F 39.2 °F 30.18 in Calm   1.0 mph 96% 0.00 in
07:25 39.7 °F 38.7 °F 30.18 in Calm     96% 0.00 in
07:30 39.9 °F 38.8 °F 30.18 in Calm     96% 0.00 in
07:35 40.1 °F 39.0 °F 30.19 in Calm     96% 0.00 in
07:40 40.3 °F 39.2 °F 30.19 in Calm     96% 0.00 in
07:45 40.5 °F 39.5 °F 30.18 in East 2.0 mph 2.0 mph 96% 0.00 in
07:46 40.5 °F 39.5 °F 30.18 in East 2.0 mph 2.0 mph 96% 0.00 in
07:51 40.6 °F 39.5 °F 30.18 in East 1.0 mph 2.0 mph 96% 0.00 in
07:56 40.6 °F 39.5 °F 30.19 in Calm   1.0 mph 96% 0.00 in
08:01 40.6 °F 39.5 °F 30.19 in ESE 1.0 mph 1.0 mph 96% 0.00 in
08:06 40.5 °F 39.5 °F 30.18 in East 1.0 mph 2.0 mph 96% 0.00 in
08:11 40.4 °F 39.3 °F 30.18 in ESE 2.0 mph 2.0 mph 96% 0.00 in
08:16 40.4 °F 39.3 °F 30.18 in ESE 2.0 mph 2.0 mph 96% 0.00 in
08:21 40.3 °F 39.2 °F 30.19 in ESE 2.0 mph 2.0 mph 96% 0.00 in
08:26 40.8 °F 39.8 °F 30.19 in ESE 3.0 mph 3.0 mph 96% 0.00 in
08:31 41.3 °F 40.2 °F 30.19 in ESE 2.0 mph 3.0 mph 96% 0.00 in
08:36 41.7 °F 40.7 °F 30.19 in ESE 3.0 mph 4.0 mph 96% 0.00 in
08:41 42.0 °F 40.9 °F 30.19 in ESE 4.0 mph 6.0 mph 96% 0.00 in
08:46 42.2 °F 41.1 °F 30.19 in ESE 4.0 mph 6.0 mph 96% 0.00 in
08:51 42.3 °F 41.0 °F 30.19 in ESE 5.0 mph 6.0 mph 95% 0.00 in
08:56 42.7 °F 41.4 °F 30.19 in ESE 6.0 mph 7.0 mph 95% 0.00 in
09:01 43.2 °F 41.9 °F 30.19 in SE 5.0 mph 8.0 mph 95% 0.00 in
09:06 43.8 °F 42.2 °F 30.20 in SE 7.0 mph 9.0 mph 94% 0.00 in
09:11 44.2 °F 42.3 °F 30.20 in ESE 8.0 mph 9.0 mph 93% 0.00 in
09:16 44.2 °F 42.0 °F 30.19 in ESE 7.0 mph 8.0 mph 92% 0.00 in
09:21 44.2 °F 42.3 °F 30.20 in East 6.0 mph 6.0 mph 93% 0.00 in
09:26 44.5 °F 42.6 °F 30.20 in ESE 6.0 mph 9.0 mph 93% 0.00 in
09:31 44.5 °F 42.3 °F 30.20 in SE 4.0 mph 6.0 mph 92% 0.00 in
09:36 45.0 °F 43.1 °F 30.19 in East 6.0 mph 8.0 mph 93% 0.00 in
09:41 45.6 °F 43.4 °F 30.20 in SE 9.0 mph 10.0 mph 92% 0.00 in
09:46 46.1 °F 43.3 °F 30.20 in ESE 7.0 mph 10.0 mph 90% 0.00 in
09:51 46.6 °F 43.8 °F 30.20 in ESE 10.0 mph 10.0 mph 90% 0.00 in
09:56 46.9 °F 44.1 °F 30.19 in East 8.0 mph 11.0 mph 90% 0.00 in
10:01 47.3 °F 44.2 °F 30.19 in ESE 8.0 mph 12.0 mph 89% 0.00 in
10:06 47.7 °F 44.6 °F 30.19 in ESE 7.0 mph 11.0 mph 89% 0.00 in
10:11 48.3 °F 44.6 °F 30.18 in SE 8.0 mph 12.0 mph 87% 0.00 in
10:16 48.9 °F 44.9 °F 30.19 in ESE 9.0 mph 13.0 mph 86% 0.00 in
10:21 49.0 °F 44.1 °F 30.18 in ESE 11.0 mph 14.0 mph 83% 0.00 in
10:26 49.1 °F 44.5 °F 30.18 in SE 9.0 mph 13.0 mph 84% 0.00 in
10:31 49.6 °F 45.3 °F 30.18 in SE 7.0 mph 12.0 mph 85% 0.00 in
10:36 49.6 °F 44.7 °F 30.17 in ESE 12.0 mph 14.0 mph 83% 0.00 in
10:42 49.6 °F 45.0 °F 30.18 in ESE 9.0 mph 12.0 mph 84% 0.00 in
10:46 50.3 °F 46.0 °F 30.18 in ESE 8.0 mph 12.0 mph 85% 0.00 in
10:52 50.8 °F 45.5 °F 30.18 in SSE 11.0 mph 12.0 mph 82% 0.00 in
10:57 51.0 °F 45.4 °F 30.18 in SE 10.0 mph 12.0 mph 81% 0.00 in
11:02 50.6 °F 45.6 °F 30.19 in SE 6.0 mph 11.0 mph 83% 0.00 in
11:07 50.8 °F 46.2 °F 30.18 in SE 9.0 mph 11.0 mph 84% 0.00 in
11:12 50.9 °F 45.3 °F 30.18 in SE 8.0 mph 11.0 mph 81% 0.00 in
11:17 50.7 °F 45.4 °F 30.19 in SE 8.0 mph 11.0 mph 82% 0.00 in
11:22 50.9 °F 45.6 °F 30.19 in ESE 5.0 mph 9.0 mph 82% 0.00 in
11:27 50.8 °F 45.2 °F 30.18 in SE 4.0 mph 6.0 mph 81% 0.00 in
11:32 50.6 °F 45.3 °F 30.18 in ESE 7.0 mph 7.0 mph 82% 0.00 in
11:37 50.4 °F 45.4 °F 30.15 in SE 5.0 mph 10.0 mph 83% 0.00 in
11:42 51.6 °F 47.2 °F 30.16 in ESE 10.0 mph 12.0 mph 85% 0.00 in
11:47 51.8 °F 46.2 °F 30.15 in SE 10.0 mph 11.0 mph 81% 0.00 in
11:52 52.2 °F 46.9 °F 30.15 in ESE 9.0 mph 11.0 mph 82% 0.00 in
11:57 52.2 °F 46.5 °F 30.16 in ESE 8.0 mph 11.0 mph 81% 0.00 in
12:02 52.5 °F 46.5 °F 30.15 in ESE 9.0 mph 11.0 mph 80% 0.00 in
12:07 53.1 °F 47.1 °F 30.15 in SE 6.0 mph 8.0 mph 80% 0.00 in
12:12 53.7 °F 47.3 °F 30.15 in SSE 6.0 mph 8.0 mph 79% 0.00 in
12:17 54.1 °F 47.4 °F 30.15 in SSE 8.0 mph 8.0 mph 78% 0.00 in
12:22 53.9 °F 46.9 °F 30.15 in SSE 5.0 mph 9.0 mph 77% 0.00 in
12:27 53.7 °F 46.7 °F 30.15 in SE 7.0 mph 9.0 mph 77% 0.00 in
12:32 53.7 °F 46.0 °F 30.15 in SE 6.0 mph 10.0 mph 75% 0.00 in
12:37 54.2 °F 46.5 °F 30.14 in SE 8.0 mph 9.0 mph 75% 0.00 in
12:42 54.2 °F 46.1 °F 30.14 in SE 5.0 mph 7.0 mph 74% 0.00 in
12:47 54.1 °F 46.4 °F 30.13 in SSE 6.0 mph 9.0 mph 75% 0.00 in
12:52 54.3 °F 46.6 °F 30.14 in SSE 7.0 mph 10.0 mph 75% 0.00 in
12:57 54.5 °F 47.1 °F 30.14 in SSE 6.0 mph 8.0 mph 76% 0.00 in
13:02 55.3 °F 46.8 °F 30.14 in SE 6.0 mph 9.0 mph 73% 0.00 in
13:07 55.8 °F 47.3 °F 30.14 in SSE 5.0 mph 10.0 mph 73% 0.00 in
13:12 56.1 °F 47.2 °F 30.15 in SSW 3.0 mph 8.0 mph 72% 0.00 in
13:17 55.8 °F 47.3 °F 30.14 in SSE 6.0 mph 11.0 mph 73% 0.00 in
13:22 56.0 °F 47.5 °F 30.14 in South 8.0 mph 9.0 mph 73% 0.00 in
13:27 55.9 °F 47.4 °F 30.13 in South 3.0 mph 8.0 mph 73% 0.00 in
13:32 55.9 °F 47.0 °F 30.13 in South 3.0 mph 6.0 mph 72% 0.00 in
13:37 56.0 °F 46.4 °F 30.13 in SSE 6.0 mph 7.0 mph 70% 0.00 in
13:42 55.7 °F 46.1 °F 30.12 in SE 5.0 mph 7.0 mph 70% 0.00 in
13:47 55.9 °F 45.9 °F 30.12 in ESE 7.0 mph 7.0 mph 69% 0.00 in
13:52 55.9 °F 45.9 °F 30.12 in ESE 6.0 mph 6.0 mph 69% 0.00 in
13:58 55.4 °F 45.8 °F 30.12 in SE 3.0 mph 6.0 mph 70% 0.00 in
14:03 55.4 °F 46.9 °F 30.12 in South 4.0 mph 7.0 mph 73% 0.00 in
14:08 55.2 °F 46.7 °F 30.12 in SE 3.0 mph 6.0 mph 73% 0.00 in
14:13 55.3 °F 46.4 °F 30.12 in ESE 4.0 mph 6.0 mph 72% 0.00 in
14:18 55.6 °F 47.1 °F 30.10 in SE 5.0 mph 7.0 mph 73% 0.00 in
14:23 56.0 °F 47.1 °F 30.10 in ESE 10.0 mph 10.0 mph 72% 0.00 in
14:28 55.7 °F 46.5 °F 30.09 in ESE 8.0 mph 12.0 mph 71% 0.00 in
14:33 55.7 °F 46.5 °F 30.09 in ESE 7.0 mph 11.0 mph 71% 0.00 in
14:38 55.8 °F 46.5 °F 30.08 in ESE 8.0 mph 10.0 mph 71% 0.00 in
14:43 56.0 °F 46.7 °F 30.08 in ESE 7.0 mph 11.0 mph 71% 0.00 in
14:48 56.6 °F 46.9 °F 30.08 in ESE 8.0 mph 9.0 mph 70% 0.00 in
14:53 57.4 °F 46.9 °F 30.08 in ESE 7.0 mph 10.0 mph 68% 0.00 in
14:58 57.4 °F 46.2 °F 30.08 in SE 8.0 mph 9.0 mph 66% 0.00 in
15:03 57.8 °F 46.5 °F 30.08 in SE 7.0 mph 10.0 mph 66% 0.00 in
15:08 58.0 °F 44.6 °F 30.07 in ESE 12.0 mph 12.0 mph 61% 0.00 in
15:13 57.9 °F 45.4 °F 30.07 in SE 5.0 mph 10.0 mph 63% 0.00 in
15:18 58.2 °F 44.8 °F 30.07 in ESE 8.0 mph 11.0 mph 61% 0.00 in
15:23 58.2 °F 45.3 °F 30.07 in SSE 3.0 mph 7.0 mph 62% 0.00 in
15:28 58.4 °F 45.9 °F 30.07 in SE 3.0 mph 5.0 mph 63% 0.00 in
15:33 58.5 °F 46.0 °F 30.07 in SE 4.0 mph 7.0 mph 63% 0.00 in
15:38 58.5 °F 46.4 °F 30.06 in ESE 4.0 mph 6.0 mph 64% 0.00 in
15:43 58.9 °F 45.9 °F 30.06 in ESE 7.0 mph 7.0 mph 62% 0.00 in
15:48 58.8 °F 46.7 °F 30.06 in SE 3.0 mph 8.0 mph 64% 0.00 in
15:53 58.7 °F 47.4 °F 30.06 in ESE 4.0 mph 7.0 mph 66% 0.00 in
15:58 58.6 °F 46.9 °F 30.06 in SE 3.0 mph 5.0 mph 65% 0.00 in
16:03 58.7 °F 45.7 °F 30.06 in ESE 7.0 mph 8.0 mph 62% 0.00 in
16:08 58.6 °F 46.5 °F 30.05 in SE 5.0 mph 6.0 mph 64% 0.00 in
16:13 58.6 °F 45.6 °F 30.06 in ESE 3.0 mph 8.0 mph 62% 0.00 in
16:18 58.6 °F 46.1 °F 30.06 in ESE 3.0 mph 5.0 mph 63% 0.00 in
16:23 58.7 °F 46.6 °F 30.06 in SE 2.0 mph 5.0 mph 64% 0.00 in
16:28 58.8 °F 45.4 °F 30.06 in SE 3.0 mph 7.0 mph 61% 0.00 in
16:34 59.0 °F 45.6 °F 30.06 in SE 5.0 mph 5.0 mph 61% 0.00 in
16:39 59.2 °F 45.3 °F 30.07 in SE 3.0 mph 6.0 mph 60% 0.00 in
16:44 59.2 °F 45.3 °F 30.07 in SE 4.0 mph 5.0 mph 60% 0.00 in
16:49 59.2 °F 45.8 °F 30.06 in SSE 2.0 mph 5.0 mph 61% 0.00 in
16:54 59.6 °F 45.3 °F 30.06 in SE 4.0 mph 6.0 mph 59% 0.00 in
16:59 59.6 °F 44.4 °F 30.07 in SSE 3.0 mph 4.0 mph 57% 0.00 in
17:04 59.5 °F 45.2 °F 30.07 in SSE 3.0 mph 5.0 mph 59% 0.00 in
17:09 59.3 °F 45.4 °F 30.07 in SSE 4.0 mph 4.0 mph 60% 0.00 in
17:14 59.2 °F 45.3 °F 30.07 in SSE 1.0 mph 3.0 mph 60% 0.00 in
17:19 59.0 °F 45.2 °F 30.07 in SSE 1.0 mph 2.0 mph 60% 0.00 in
17:24 58.9 °F 45.9 °F 30.07 in SSE 1.0 mph 2.0 mph 62% 0.00 in
17:29 58.8 °F 45.8 °F 30.07 in Calm   1.0 mph 62% 0.00 in
17:34 58.7 °F 45.7 °F 30.07 in ESE 1.0 mph 2.0 mph 62% 0.00 in
17:39 58.6 °F 45.6 °F 30.07 in Calm   1.0 mph 62% 0.00 in
17:44 58.4 °F 46.3 °F 30.06 in ESE 1.0 mph 1.0 mph 64% 0.00 in
17:49 58.1 °F 46.4 °F 30.06 in ENE 1.0 mph 2.0 mph 65% 0.00 in
17:54 57.9 °F 45.8 °F 30.06 in East 1.0 mph 2.0 mph 64% 0.00 in
17:59 57.8 °F 46.1 °F 30.06 in Calm   2.0 mph 65% 0.00 in
18:04 57.8 °F 45.7 °F 30.06 in NE 3.0 mph 3.0 mph 64% 0.00 in
18:09 57.9 °F 45.4 °F 30.07 in Calm   2.0 mph 63% 0.00 in
18:14 57.8 °F 45.3 °F 30.06 in East 2.0 mph 3.0 mph 63% 0.00 in
18:19 57.7 °F 45.6 °F 30.06 in East 1.0 mph 2.0 mph 64% 0.00 in
18:24 57.5 °F 45.8 °F 30.06 in East 1.0 mph 2.0 mph 65% 0.00 in
18:29 57.5 °F 45.8 °F 30.07 in East 2.0 mph 2.0 mph 65% 0.00 in
18:34 57.4 °F 45.8 °F 30.07 in NE 2.0 mph 2.0 mph 65% 0.00 in
18:40 57.4 °F 45.3 °F 30.07 in NE 1.0 mph 3.0 mph 64% 0.00 in
18:45 57.4 °F 45.3 °F 30.07 in NE 3.0 mph 4.0 mph 64% 0.00 in
18:50 57.2 °F 46.0 °F 30.07 in North 2.0 mph 3.0 mph 66% 0.00 in
18:55 56.7 °F 46.3 °F 30.09 in NW 3.0 mph 3.0 mph 68% 0.00 in
19:00 55.8 °F 46.2 °F 30.09 in NW 2.0 mph 3.0 mph 70% 0.00 in
19:05 55.8 °F 46.2 °F 30.09 in NNE 1.0 mph 2.0 mph 70% 0.00 in
19:10 55.9 °F 46.7 °F 30.09 in ENE 1.0 mph 2.0 mph 71% 0.00 in
19:15 55.9 °F 46.3 °F 30.08 in East 1.0 mph 2.0 mph 70% 0.00 in
19:20 56.0 °F 46.4 °F 30.06 in East 4.0 mph 5.0 mph 70% 0.00 in
19:25 55.5 °F 46.3 °F 30.06 in East 3.0 mph 5.0 mph 71% 0.00 in
19:30 55.1 °F 46.6 °F 30.05 in East 6.0 mph 7.0 mph 73% 0.00 in
19:35 55.0 °F 46.5 °F 30.05 in NE 6.0 mph 7.0 mph 73% 0.00 in
19:40 55.4 °F 46.9 °F 30.05 in ESE 4.0 mph 5.0 mph 73% 0.00 in
19:45 55.4 °F 46.5 °F 30.05 in East 4.0 mph 6.0 mph 72% 0.00 in
19:50 55.7 °F 46.8 °F 30.05 in ESE 3.0 mph 6.0 mph 72% 0.00 in
19:55 55.7 °F 46.5 °F 30.05 in East 6.0 mph 6.0 mph 71% 0.00 in
20:00 55.8 °F 46.9 °F 30.06 in East 2.0 mph 7.0 mph 72% 0.00 in
20:05 55.7 °F 46.8 °F 30.07 in East 2.0 mph 3.0 mph 72% 0.00 in
20:10 55.6 °F 47.1 °F 30.08 in ESE 1.0 mph 1.0 mph 73% 0.00 in
20:15 55.3 °F 47.2 °F 30.08 in East 1.0 mph 2.0 mph 74% 0.00 in
20:20 55.0 °F 47.2 °F 30.08 in ESE 2.0 mph 2.0 mph 75% 0.06 in
20:25 54.5 °F 47.1 °F 30.06 in ENE 5.0 mph 6.0 mph 76% 0.06 in
20:30 54.0 °F 47.6 °F 30.06 in East 4.0 mph 7.0 mph 79% 0.06 in
20:35 53.7 °F 47.7 °F 30.06 in ESE 4.0 mph 5.0 mph 80% 0.06 in
20:40 53.7 °F 47.7 °F 30.07 in East 1.0 mph 5.0 mph 80% 0.06 in
20:45 53.7 °F 48.0 °F 30.07 in NE 3.0 mph 3.0 mph 81% 0.04 in
20:46 53.7 °F 48.0 °F 30.07 in NNE 2.0 mph 3.0 mph 81% 0.04 in
20:51 53.5 °F 48.2 °F 30.07 in NE 3.0 mph 4.0 mph 82% 0.00 in
20:56 53.4 °F 48.0 °F 30.06 in East 5.0 mph 5.0 mph 82% 0.00 in
21:01 53.5 °F 48.2 °F 30.05 in East 3.0 mph 8.0 mph 82% 0.00 in
21:06 53.6 °F 48.2 °F 30.06 in ESE 4.0 mph 6.0 mph 82% 0.00 in
21:11 53.5 °F 47.8 °F 30.07 in ESE 4.0 mph 6.0 mph 81% 0.00 in
21:16 53.7 °F 48.3 °F 30.07 in East 5.0 mph 5.0 mph 82% 0.00 in
21:21 53.6 °F 48.2 °F 30.05 in ESE 7.0 mph 8.0 mph 82% 0.24 in
21:26 53.6 °F 48.2 °F 30.05 in East 5.0 mph 7.0 mph 82% 0.08 in
21:31 53.6 °F 48.2 °F 30.05 in ESE 7.0 mph 9.0 mph 82% 0.06 in
21:36 53.3 °F 48.3 °F 30.05 in ESE 6.0 mph 10.0 mph 83% 0.06 in
21:42 53.0 °F 48.3 °F 30.08 in SSE 5.0 mph 7.0 mph 84% 0.05 in
21:47 52.9 °F 48.2 °F 30.07 in SE 5.0 mph 8.0 mph 84% 0.04 in
21:52 53.1 °F 48.4 °F 30.07 in SE 6.0 mph 8.0 mph 84% 0.04 in
21:57 53.0 °F 48.3 °F 30.06 in SE 11.0 mph 11.0 mph 84% 0.04 in
22:02 52.9 °F 48.5 °F 30.06 in SE 6.0 mph 10.0 mph 85% 0.18 in
22:07 52.8 °F 48.7 °F 30.06 in ESE 6.0 mph 8.0 mph 86% 0.11 in
22:12 52.6 °F 48.8 °F 30.06 in SE 6.0 mph 8.0 mph 87% 0.11 in
22:17 52.6 °F 48.8 °F 30.06 in SE 3.0 mph 8.0 mph 87% 0.09 in
22:22 52.5 °F 49.0 °F 30.10 in West 6.0 mph 7.0 mph 88% 0.07 in
22:27 52.2 °F 49.1 °F 30.09 in SE 1.0 mph 5.0 mph 89% 0.07 in
22:32 52.0 °F 48.9 °F 30.07 in SE 4.0 mph 5.0 mph 89% 0.22 in
22:37 51.9 °F 49.1 °F 30.06 in ESE 8.0 mph 8.0 mph 90% 0.13 in
22:42 52.1 °F 49.3 °F 30.05 in SE 7.0 mph 13.0 mph 90% 0.09 in
22:47 52.1 °F 49.0 °F 30.05 in SE 7.0 mph 11.0 mph 89% 0.05 in
22:52 52.2 °F 49.1 °F 30.07 in ESE 4.0 mph 7.0 mph 89% 0.04 in
22:57 52.3 °F 49.2 °F 30.07 in SE 7.0 mph 7.0 mph 89% 0.00 in
23:02 52.5 °F 49.0 °F 30.06 in ESE 10.0 mph 11.0 mph 88% 0.00 in
23:07 52.5 °F 49.0 °F 30.06 in ESE 6.0 mph 10.0 mph 88% 0.00 in
23:12 52.6 °F 49.2 °F 30.05 in ESE 8.0 mph 10.0 mph 88% 0.00 in
23:17 52.7 °F 49.2 °F 30.05 in SE 8.0 mph 11.0 mph 88% 0.00 in
23:22 52.8 °F 49.3 °F 30.05 in ESE 10.0 mph 13.0 mph 88% 0.00 in
23:27 53.0 °F 49.2 °F 30.05 in SE 8.0 mph 12.0 mph 87% 0.00 in
23:32 53.2 °F 49.1 °F 30.06 in SE 7.0 mph 15.0 mph 86% 0.00 in
23:37 53.2 °F 49.1 °F 30.06 in SE 10.0 mph 11.0 mph 86% 0.00 in
23:42 53.2 °F 49.1 °F 30.04 in SE 9.0 mph 14.0 mph 86% 0.00 in
23:47 53.2 °F 49.1 °F 30.03 in ESE 12.0 mph 14.0 mph 86% 0.00 in
23:52 53.1 °F 49.0 °F 30.03 in SSE 9.0 mph 13.0 mph 86% 0.00 in
23:58 53.2 °F 49.1 °F 30.03 in SE 12.0 mph 14.0 mph 86% 0.00 in
Compliments of Weather Underground